sensor_id;sensor_type;location;lat;lon;timestamp;temperature;humidity
63407;SHT31;49543;45.892;10.838;2022-08-06T06:11:31;28.45;63.51
63407;SHT31;49543;45.892;10.838;2022-08-06T06:13:57;28.55;62.95
63407;SHT31;49543;45.892;10.838;2022-08-06T06:21:48;28.84;62.75
63407;SHT31;49543;45.892;10.838;2022-08-06T06:24:30;28.92;62.54
63407;SHT31;49543;45.892;10.838;2022-08-06T09:01:57;32.04;55.09
63407;SHT31;49543;45.892;10.838;2022-08-06T09:04:24;32.18;54.44
63407;SHT31;49543;45.892;10.838;2022-08-06T09:06:50;32.40;53.84
63407;SHT31;49543;45.892;10.838;2022-08-06T09:09:16;32.48;54.12
63407;SHT31;49543;45.892;10.838;2022-08-06T09:11:42;32.69;53.37
63407;SHT31;49543;45.892;10.838;2022-08-06T09:14:08;32.87;53.74
63407;SHT31;49543;45.892;10.838;2022-08-06T09:16:36;32.96;52.81
63407;SHT31;49543;45.892;10.838;2022-08-06T09:19:04;33.12;53.46
63407;SHT31;49543;45.892;10.838;2022-08-06T09:21:31;33.24;52.81
63407;SHT31;49543;45.892;10.838;2022-08-06T09:23:57;33.22;52.62
63407;SHT31;49543;45.892;10.838;2022-08-06T09:26:22;33.38;52.54
63407;SHT31;49543;45.892;10.838;2022-08-06T09:28:48;33.52;52.71
63407;SHT31;49543;45.892;10.838;2022-08-06T09:31:16;33.52;52.07
63407;SHT31;49543;45.892;10.838;2022-08-06T09:33:53;33.73;51.88
63407;SHT31;49543;45.892;10.838;2022-08-06T09:36:19;33.90;51.32
63407;SHT31;49543;45.892;10.838;2022-08-06T09:38:49;34.00;51.37
63407;SHT31;49543;45.892;10.838;2022-08-06T09:41:17;33.89;50.87
63407;SHT31;49543;45.892;10.838;2022-08-06T09:43:47;34.11;51.64
63407;SHT31;49543;45.892;10.838;2022-08-06T09:46:14;34.20;51.53
63407;SHT31;49543;45.892;10.838;2022-08-06T09:48:57;34.28;51.14
63407;SHT31;49543;45.892;10.838;2022-08-06T09:51:24;34.31;50.21
63407;SHT31;49543;45.892;10.838;2022-08-06T09:53:57;34.34;49.55
63407;SHT31;49543;45.892;10.838;2022-08-06T09:56:24;34.25;50.93
63407;SHT31;49543;45.892;10.838;2022-08-06T09:58:50;34.36;50.68
63407;SHT31;49543;45.892;10.838;2022-08-06T10:01:21;34.38;50.26
63407;SHT31;49543;45.892;10.838;2022-08-06T10:03:47;34.48;50.40
63407;SHT31;49543;45.892;10.838;2022-08-06T10:06:17;34.61;50.01
63407;SHT31;49543;45.892;10.838;2022-08-06T10:08:47;34.66;48.14
63407;SHT31;49543;45.892;10.838;2022-08-06T10:11:14;34.55;48.67
63407;SHT31;49543;45.892;10.838;2022-08-06T10:13:46;34.68;50.14
63407;SHT31;49543;45.892;10.838;2022-08-06T10:16:21;34.85;50.20
63407;SHT31;49543;45.892;10.838;2022-08-06T10:18:52;35.07;50.32
63407;SHT31;49543;45.892;10.838;2022-08-06T10:21:20;35.19;49.83
63407;SHT31;49543;45.892;10.838;2022-08-06T10:23:49;35.29;49.89
63407;SHT31;49543;45.892;10.838;2022-08-06T10:26:30;35.50;49.34
63407;SHT31;49543;45.892;10.838;2022-08-06T10:29:02;35.75;47.98
63407;SHT31;49543;45.892;10.838;2022-08-06T10:31:28;35.94;46.86
63407;SHT31;49543;45.892;10.838;2022-08-06T10:34:05;36.23;47.18
63407;SHT31;49543;45.892;10.838;2022-08-06T10:36:36;36.67;45.81
63407;SHT31;49543;45.892;10.838;2022-08-06T10:39:03;37.07;45.63
63407;SHT31;49543;45.892;10.838;2022-08-06T10:41:30;37.47;45.65
63407;SHT31;49543;45.892;10.838;2022-08-06T10:43:56;37.84;45.06
63407;SHT31;49543;45.892;10.838;2022-08-06T10:46:23;38.44;45.05
63407;SHT31;49543;45.892;10.838;2022-08-06T10:48:48;39.02;43.75
63407;SHT31;49543;45.892;10.838;2022-08-06T10:51:14;39.95;40.73
63407;SHT31;49543;45.892;10.838;2022-08-06T10:53:43;40.64;39.54
63407;SHT31;49543;45.892;10.838;2022-08-06T10:56:14;41.18;39.52
63407;SHT31;49543;45.892;10.838;2022-08-06T10:58:40;41.81;39.89
63407;SHT31;49543;45.892;10.838;2022-08-06T11:01:08;42.25;38.76
63407;SHT31;49543;45.892;10.838;2022-08-06T11:09:18;42.71;36.52
63407;SHT31;49543;45.892;10.838;2022-08-06T11:12:00;43.01;37.99
63407;SHT31;49543;45.892;10.838;2022-08-06T11:14:29;43.45;37.77
63407;SHT31;49543;45.892;10.838;2022-08-06T11:16:59;43.41;36.11
63407;SHT31;49543;45.892;10.838;2022-08-06T11:19:57;43.63;37.38
63407;SHT31;49543;45.892;10.838;2022-08-06T11:25:02;43.68;36.00
63407;SHT31;49543;45.892;10.838;2022-08-06T11:27:53;43.49;36.14
63407;SHT31;49543;45.892;10.838;2022-08-06T11:30:45;42.91;35.40
63407;SHT31;49543;45.892;10.838;2022-08-06T11:33:13;42.56;37.53
63407;SHT31;49543;45.892;10.838;2022-08-06T11:35:40;42.07;36.38
63407;SHT31;49543;45.892;10.838;2022-08-06T11:38:08;42.62;39.27
63407;SHT31;49543;45.892;10.838;2022-08-06T11:40:53;42.68;40.90
63407;SHT31;49543;45.892;10.838;2022-08-06T11:46:32;42.36;40.24
63407;SHT31;49543;45.892;10.838;2022-08-06T11:54:32;41.80;38.02
63407;SHT31;49543;45.892;10.838;2022-08-06T11:59:24;40.06;38.86
63407;SHT31;49543;45.892;10.838;2022-08-06T12:01:50;39.23;42.34
63407;SHT31;49543;45.892;10.838;2022-08-06T12:12:50;41.29;40.52
63407;SHT31;49543;45.892;10.838;2022-08-06T12:20:39;39.47;40.81
63407;SHT31;49543;45.892;10.838;2022-08-06T12:23:14;38.66;42.92
63407;SHT31;49543;45.892;10.838;2022-08-06T12:25:42;38.62;41.34
63407;SHT31;49543;45.892;10.838;2022-08-06T12:28:09;37.78;42.32
63407;SHT31;49543;45.892;10.838;2022-08-06T12:30:46;37.50;44.82
63407;SHT31;49543;45.892;10.838;2022-08-06T12:33:12;38.70;44.33
63407;SHT31;49543;45.892;10.838;2022-08-06T12:36:07;40.06;42.65
63407;SHT31;49543;45.892;10.838;2022-08-06T12:38:33;41.22;39.24
63407;SHT31;49543;45.892;10.838;2022-08-06T12:41:03;41.94;37.38
63407;SHT31;49543;45.892;10.838;2022-08-06T12:43:33;41.54;37.36
63407;SHT31;49543;45.892;10.838;2022-08-06T12:46:01;41.32;37.97
63407;SHT31;49543;45.892;10.838;2022-08-06T12:48:27;40.75;39.97
63407;SHT31;49543;45.892;10.838;2022-08-06T12:51:12;40.87;40.55
63407;SHT31;49543;45.892;10.838;2022-08-06T12:56:05;40.37;40.13
63407;SHT31;49543;45.892;10.838;2022-08-06T12:58:36;39.65;40.75
63407;SHT31;49543;45.892;10.838;2022-08-06T13:01:03;39.28;41.20
63407;SHT31;49543;45.892;10.838;2022-08-06T13:03:32;37.96;38.94
63407;SHT31;49543;45.892;10.838;2022-08-06T13:06:00;38.25;42.39
63407;SHT31;49543;45.892;10.838;2022-08-06T13:08:32;38.10;42.63
63407;SHT31;49543;45.892;10.838;2022-08-06T13:11:01;38.05;43.28
63407;SHT31;49543;45.892;10.838;2022-08-06T13:13:46;37.83;42.32
63407;SHT31;49543;45.892;10.838;2022-08-06T13:16:13;37.76;42.80
63407;SHT31;49543;45.892;10.838;2022-08-06T13:18:40;37.65;43.15
63407;SHT31;49543;45.892;10.838;2022-08-06T13:21:26;37.23;41.08
63407;SHT31;49543;45.892;10.838;2022-08-06T13:23:52;37.05;44.22
63407;SHT31;49543;45.892;10.838;2022-08-06T13:26:20;36.84;44.09
63407;SHT31;49543;45.892;10.838;2022-08-06T13:31:39;36.78;43.77
63407;SHT31;49543;45.892;10.838;2022-08-06T13:34:07;36.63;43.32
63407;SHT31;49543;45.892;10.838;2022-08-06T13:36:35;36.64;44.43
63407;SHT31;49543;45.892;10.838;2022-08-06T13:39:22;36.51;44.83
63407;SHT31;49543;45.892;10.838;2022-08-06T13:44:38;36.44;45.91
63407;SHT31;49543;45.892;10.838;2022-08-06T13:47:05;36.44;45.78
63407;SHT31;49543;45.892;10.838;2022-08-06T13:49:31;36.33;45.80
63407;SHT31;49543;45.892;10.838;2022-08-06T13:52:01;36.40;46.51
63407;SHT31;49543;45.892;10.838;2022-08-06T13:54:28;36.29;44.84
63407;SHT31;49543;45.892;10.838;2022-08-06T13:57:06;36.32;44.70
63407;SHT31;49543;45.892;10.838;2022-08-06T13:59:32;36.33;45.45
63407;SHT31;49543;45.892;10.838;2022-08-06T14:02:00;36.32;44.58
63407;SHT31;49543;45.892;10.838;2022-08-06T14:04:27;36.29;45.63
63407;SHT31;49543;45.892;10.838;2022-08-06T14:06:55;36.28;47.15
63407;SHT31;49543;45.892;10.838;2022-08-06T15:58:07;31.98;53.99
63407;SHT31;49543;45.892;10.838;2022-08-06T16:00:35;31.80;55.89
63407;SHT31;49543;45.892;10.838;2022-08-06T16:03:00;31.57;56.46
63407;SHT31;49543;45.892;10.838;2022-08-06T16:05:27;31.44;58.83
63407;SHT31;49543;45.892;10.838;2022-08-06T16:07:52;31.27;62.41
63407;SHT31;49543;45.892;10.838;2022-08-06T16:10:18;30.63;62.75
63407;SHT31;49543;45.892;10.838;2022-08-06T16:12:43;29.64;66.00
63407;SHT31;49543;45.892;10.838;2022-08-06T16:15:09;28.71;74.25
63407;SHT31;49543;45.892;10.838;2022-08-06T16:17:35;28.07;72.85
63407;SHT31;49543;45.892;10.838;2022-08-06T16:20:01;27.69;74.66
63407;SHT31;49543;45.892;10.838;2022-08-06T16:22:27;27.48;78.24
63407;SHT31;49543;45.892;10.838;2022-08-06T16:24:53;27.04;80.01
63407;SHT31;49543;45.892;10.838;2022-08-06T16:27:18;26.60;84.88
63407;SHT31;49543;45.892;10.838;2022-08-06T16:29:45;26.20;81.81
63407;SHT31;49543;45.892;10.838;2022-08-06T16:32:11;25.93;77.67
63407;SHT31;49543;45.892;10.838;2022-08-06T16:34:38;25.74;77.28
63407;SHT31;49543;45.892;10.838;2022-08-06T16:37:04;25.67;77.95
63407;SHT31;49543;45.892;10.838;2022-08-06T16:39:29;25.59;81.12
63407;SHT31;49543;45.892;10.838;2022-08-06T16:41:55;25.53;79.87
63407;SHT31;49543;45.892;10.838;2022-08-06T16:44:21;25.57;80.34
63407;SHT31;49543;45.892;10.838;2022-08-06T16:46:46;25.74;80.46
63407;SHT31;49543;45.892;10.838;2022-08-06T16:49:12;25.78;78.21
63407;SHT31;49543;45.892;10.838;2022-08-06T16:51:38;25.70;77.66
63407;SHT31;49543;45.892;10.838;2022-08-06T16:54:04;25.49;77.37
63407;SHT31;49543;45.892;10.838;2022-08-06T16:56:29;25.43;78.87
63407;SHT31;49543;45.892;10.838;2022-08-06T16:58:55;25.46;80.96
63407;SHT31;49543;45.892;10.838;2022-08-06T17:01:20;25.59;80.94
63407;SHT31;49543;45.892;10.838;2022-08-06T17:03:46;25.73;80.04
63407;SHT31;49543;45.892;10.838;2022-08-06T17:06:12;25.84;79.65
63407;SHT31;49543;45.892;10.838;2022-08-06T17:08:38;26.02;78.94
63407;SHT31;49543;45.892;10.838;2022-08-06T17:11:03;26.12;80.78
63407;SHT31;49543;45.892;10.838;2022-08-06T17:13:29;26.14;78.74
63407;SHT31;49543;45.892;10.838;2022-08-06T17:15:55;25.94;77.65
63407;SHT31;49543;45.892;10.838;2022-08-06T17:18:22;25.83;79.06
63407;SHT31;49543;45.892;10.838;2022-08-06T17:20:47;25.86;77.88
63407;SHT31;49543;45.892;10.838;2022-08-06T17:23:17;25.90;78.97
63407;SHT31;49543;45.892;10.838;2022-08-06T17:25:43;25.93;78.47
63407;SHT31;49543;45.892;10.838;2022-08-06T17:28:11;25.94;78.84
63407;SHT31;49543;45.892;10.838;2022-08-06T17:30:36;25.94;79.67
63407;SHT31;49543;45.892;10.838;2022-08-06T17:33:02;25.95;79.40
63407;SHT31;49543;45.892;10.838;2022-08-06T17:35:28;25.95;80.14
63407;SHT31;49543;45.892;10.838;2022-08-06T17:37:53;25.94;79.14
63407;SHT31;49543;45.892;10.838;2022-08-06T17:40:21;25.97;79.77
63407;SHT31;49543;45.892;10.838;2022-08-06T17:42:48;26.08;79.37
63407;SHT31;49543;45.892;10.838;2022-08-06T17:45:13;26.15;79.09
63407;SHT31;49543;45.892;10.838;2022-08-06T17:47:39;26.24;78.53
63407;SHT31;49543;45.892;10.838;2022-08-06T17:50:06;26.20;78.77
63407;SHT31;49543;45.892;10.838;2022-08-06T17:52:32;26.25;78.73
63407;SHT31;49543;45.892;10.838;2022-08-06T17:54:58;26.18;78.84
63407;SHT31;49543;45.892;10.838;2022-08-06T17:57:23;26.09;78.60
63407;SHT31;49543;45.892;10.838;2022-08-06T17:59:49;26.05;78.56
63407;SHT31;49543;45.892;10.838;2022-08-06T18:02:15;25.95;77.89
63407;SHT31;49543;45.892;10.838;2022-08-06T18:04:41;26.08;77.83
63407;SHT31;49543;45.892;10.838;2022-08-06T18:07:06;26.20;77.72
63407;SHT31;49543;45.892;10.838;2022-08-06T18:09:33;26.25;77.59
63407;SHT31;49543;45.892;10.838;2022-08-06T18:11:58;26.31;77.54
63407;SHT31;49543;45.892;10.838;2022-08-06T18:14:26;26.31;77.32
63407;SHT31;49543;45.892;10.838;2022-08-06T18:16:51;26.39;77.77
63407;SHT31;49543;45.892;10.838;2022-08-06T18:19:17;26.38;78.34
63407;SHT31;49543;45.892;10.838;2022-08-06T18:21:42;26.25;78.85
63407;SHT31;49543;45.892;10.838;2022-08-06T18:24:08;26.24;79.10
63407;SHT31;49543;45.892;10.838;2022-08-06T18:26:33;26.14;79.04
63407;SHT31;49543;45.892;10.838;2022-08-06T18:29:00;26.05;78.81
63407;SHT31;49543;45.892;10.838;2022-08-06T18:31:26;26.01;78.28
63407;SHT31;49543;45.892;10.838;2022-08-06T18:33:52;26.00;77.56
63407;SHT31;49543;45.892;10.838;2022-08-06T18:36:18;26.00;78.03
63407;SHT31;49543;45.892;10.838;2022-08-06T18:38:43;25.95;78.94
63407;SHT31;49543;45.892;10.838;2022-08-06T18:41:09;25.93;79.31
63407;SHT31;49543;45.892;10.838;2022-08-06T18:43:35;25.98;78.93
63407;SHT31;49543;45.892;10.838;2022-08-06T18:46:00;25.87;79.14
63407;SHT31;49543;45.892;10.838;2022-08-06T18:48:26;25.71;79.85
63407;SHT31;49543;45.892;10.838;2022-08-06T18:50:53;25.63;79.86
63407;SHT31;49543;45.892;10.838;2022-08-06T18:53:19;25.50;80.01
63407;SHT31;49543;45.892;10.838;2022-08-06T18:55:44;25.51;79.58
63407;SHT31;49543;45.892;10.838;2022-08-06T18:58:10;25.57;78.65
63407;SHT31;49543;45.892;10.838;2022-08-06T19:00:36;25.47;79.89
63407;SHT31;49543;45.892;10.838;2022-08-06T19:03:04;25.47;78.43
63407;SHT31;49543;45.892;10.838;2022-08-06T19:05:30;25.50;78.77
63407;SHT31;49543;45.892;10.838;2022-08-06T19:07:59;25.50;78.77
63407;SHT31;49543;45.892;10.838;2022-08-06T19:10:25;25.45;78.99
63407;SHT31;49543;45.892;10.838;2022-08-06T19:12:51;25.38;79.63
63407;SHT31;49543;45.892;10.838;2022-08-06T19:15:17;25.28;80.00
63407;SHT31;49543;45.892;10.838;2022-08-06T19:17:43;25.09;80.58
63407;SHT31;49543;45.892;10.838;2022-08-06T19:20:13;24.98;81.23
63407;SHT31;49543;45.892;10.838;2022-08-06T19:22:43;24.92;81.49
63407;SHT31;49543;45.892;10.838;2022-08-06T19:25:09;24.96;81.54
63407;SHT31;49543;45.892;10.838;2022-08-06T19:27:34;24.88;80.99
63407;SHT31;49543;45.892;10.838;2022-08-06T19:30:00;24.84;81.01
63407;SHT31;49543;45.892;10.838;2022-08-06T19:32:25;24.75;81.62
63407;SHT31;49543;45.892;10.838;2022-08-06T19:34:51;24.65;82.31
63407;SHT31;49543;45.892;10.838;2022-08-06T19:37:18;24.63;82.40
63407;SHT31;49543;45.892;10.838;2022-08-06T19:39:44;24.68;82.72
63407;SHT31;49543;45.892;10.838;2022-08-06T19:42:11;24.74;82.49
63407;SHT31;49543;45.892;10.838;2022-08-06T19:44:38;24.71;82.21
63407;SHT31;49543;45.892;10.838;2022-08-06T19:47:05;24.73;82.59
63407;SHT31;49543;45.892;10.838;2022-08-06T19:49:31;24.77;82.42
63407;SHT31;49543;45.892;10.838;2022-08-06T19:51:56;24.75;82.58
63407;SHT31;49543;45.892;10.838;2022-08-06T19:54:22;24.74;81.37
63407;SHT31;49543;45.892;10.838;2022-08-06T19:56:47;24.80;80.67
63407;SHT31;49543;45.892;10.838;2022-08-06T19:59:14;24.73;81.96
63407;SHT31;49543;45.892;10.838;2022-08-06T20:01:40;24.77;82.24
63407;SHT31;49543;45.892;10.838;2022-08-06T20:04:06;24.75;82.38
63407;SHT31;49543;45.892;10.838;2022-08-06T20:06:31;24.71;82.33
63407;SHT31;49543;45.892;10.838;2022-08-06T20:08:57;24.65;82.18
63407;SHT31;49543;45.892;10.838;2022-08-06T20:11:22;24.68;81.66
63407;SHT31;49543;45.892;10.838;2022-08-06T20:13:49;24.65;82.46
63407;SHT31;49543;45.892;10.838;2022-08-06T20:16:15;24.56;82.68
63407;SHT31;49543;45.892;10.838;2022-08-06T20:18:40;24.60;82.70
63407;SHT31;49543;45.892;10.838;2022-08-06T20:21:06;24.65;82.45
63407;SHT31;49543;45.892;10.838;2022-08-06T20:23:31;24.65;82.53
63407;SHT31;49543;45.892;10.838;2022-08-06T20:25:57;24.74;81.86
63407;SHT31;49543;45.892;10.838;2022-08-06T20:28:25;24.75;81.58
63407;SHT31;49543;45.892;10.838;2022-08-06T20:30:51;24.70;82.58
63407;SHT31;49543;45.892;10.838;2022-08-06T20:33:18;24.70;82.71
63407;SHT31;49543;45.892;10.838;2022-08-06T20:35:43;24.70;82.40
63407;SHT31;49543;45.892;10.838;2022-08-06T20:38:11;24.73;82.08
63407;SHT31;49543;45.892;10.838;2022-08-06T20:40:37;24.81;81.49
63407;SHT31;49543;45.892;10.838;2022-08-06T20:43:04;24.83;82.07
63407;SHT31;49543;45.892;10.838;2022-08-06T20:45:30;24.80;82.21
63407;SHT31;49543;45.892;10.838;2022-08-06T20:47:56;24.83;81.89
63407;SHT31;49543;45.892;10.838;2022-08-06T20:50:21;24.77;82.57
63407;SHT31;49543;45.892;10.838;2022-08-06T20:52:48;24.65;83.26
63407;SHT31;49543;45.892;10.838;2022-08-06T20:55:16;24.65;83.11
63407;SHT31;49543;45.892;10.838;2022-08-06T20:57:42;24.64;82.95
63407;SHT31;49543;45.892;10.838;2022-08-06T21:00:14;24.67;82.15
63407;SHT31;49543;45.892;10.838;2022-08-06T21:02:41;24.68;82.38
63407;SHT31;49543;45.892;10.838;2022-08-06T21:05:08;24.75;82.08
63407;SHT31;49543;45.892;10.838;2022-08-06T21:07:35;24.77;81.97
63407;SHT31;49543;45.892;10.838;2022-08-06T21:10:00;24.81;81.88
63407;SHT31;49543;45.892;10.838;2022-08-06T21:12:26;24.77;82.39
63407;SHT31;49543;45.892;10.838;2022-08-06T21:14:51;24.74;82.47
63407;SHT31;49543;45.892;10.838;2022-08-06T21:17:17;24.75;82.44
63407;SHT31;49543;45.892;10.838;2022-08-06T21:19:42;24.68;82.44
63407;SHT31;49543;45.892;10.838;2022-08-06T21:22:09;24.75;82.23
63407;SHT31;49543;45.892;10.838;2022-08-06T21:24:34;24.71;81.43
63407;SHT31;49543;45.892;10.838;2022-08-06T21:27:00;24.73;81.90
63407;SHT31;49543;45.892;10.838;2022-08-06T21:29:26;24.74;82.47
63407;SHT31;49543;45.892;10.838;2022-08-06T21:31:52;24.77;82.45
